sensor_id;sensor_type;location;lat;lon;timestamp;temperature;humidity
45807;DHT22;31507;51.494;7.518;2023-09-19T00:00:19;15.50;99.90
45807;DHT22;31507;51.494;7.518;2023-09-19T00:02:55;15.40;99.90
45807;DHT22;31507;51.494;7.518;2023-09-19T00:05:24;15.40;99.90
45807;DHT22;31507;51.494;7.518;2023-09-19T00:07:50;15.30;99.90
45807;DHT22;31507;51.494;7.518;2023-09-19T00:10:19;15.30;99.90
45807;DHT22;31507;51.494;7.518;2023-09-19T00:12:47;15.30;99.90
45807;DHT22;31507;51.494;7.518;2023-09-19T00:15:12;15.20;99.90
45807;DHT22;31507;51.494;7.518;2023-09-19T00:17:38;15.20;99.90
45807;DHT22;31507;51.494;7.518;2023-09-19T00:20:06;15.10;99.90
45807;DHT22;31507;51.494;7.518;2023-09-19T00:22:38;15.00;99.90
45807;DHT22;31507;51.494;7.518;2023-09-19T00:25:04;15.00;99.90
45807;DHT22;31507;51.494;7.518;2023-09-19T00:27:31;15.00;99.90
45807;DHT22;31507;51.494;7.518;2023-09-19T00:29:58;14.90;99.90
45807;DHT22;31507;51.494;7.518;2023-09-19T00:32:25;15.00;99.90
45807;DHT22;31507;51.494;7.518;2023-09-19T00:34:55;14.90;99.90
45807;DHT22;31507;51.494;7.518;2023-09-19T00:37:21;14.90;99.90
45807;DHT22;31507;51.494;7.518;2023-09-19T00:39:47;14.90;99.90
45807;DHT22;31507;51.494;7.518;2023-09-19T00:42:22;14.90;99.90
45807;DHT22;31507;51.494;7.518;2023-09-19T00:44:48;14.90;99.90
45807;DHT22;31507;51.494;7.518;2023-09-19T00:47:17;14.90;99.90
45807;DHT22;31507;51.494;7.518;2023-09-19T00:49:45;14.90;99.90
45807;DHT22;31507;51.494;7.518;2023-09-19T00:52:16;14.80;99.90
45807;DHT22;31507;51.494;7.518;2023-09-19T00:54:45;14.80;99.90
45807;DHT22;31507;51.494;7.518;2023-09-19T00:57:11;14.80;99.90
45807;DHT22;31507;51.494;7.518;2023-09-19T00:59:37;14.80;99.90
45807;DHT22;31507;51.494;7.518;2023-09-19T01:02:02;14.70;99.90
45807;DHT22;31507;51.494;7.518;2023-09-19T01:04:29;14.70;99.90
45807;DHT22;31507;51.494;7.518;2023-09-19T01:06:54;14.70;99.90
45807;DHT22;31507;51.494;7.518;2023-09-19T01:09:20;14.70;99.90
45807;DHT22;31507;51.494;7.518;2023-09-19T01:11:47;14.60;99.90
45807;DHT22;31507;51.494;7.518;2023-09-19T01:22:13;14.50;99.90
45807;DHT22;31507;51.494;7.518;2023-09-19T01:29:51;14.40;99.90
45807;DHT22;31507;51.494;7.518;2023-09-19T01:32:17;14.40;99.90
45807;DHT22;31507;51.494;7.518;2023-09-19T01:34:54;14.40;99.90
45807;DHT22;31507;51.494;7.518;2023-09-19T01:37:22;14.40;99.90
45807;DHT22;31507;51.494;7.518;2023-09-19T01:40:08;14.40;99.90
45807;DHT22;31507;51.494;7.518;2023-09-19T01:42:52;14.30;99.90
45807;DHT22;31507;51.494;7.518;2023-09-19T01:45:24;14.30;99.90
45807;DHT22;31507;51.494;7.518;2023-09-19T01:47:52;14.30;99.90
45807;DHT22;31507;51.494;7.518;2023-09-19T01:50:32;14.30;99.90
45807;DHT22;31507;51.494;7.518;2023-09-19T01:53:04;14.30;99.90
45807;DHT22;31507;51.494;7.518;2023-09-19T01:55:30;14.30;99.90
45807;DHT22;31507;51.494;7.518;2023-09-19T01:58:06;14.30;99.90
45807;DHT22;31507;51.494;7.518;2023-09-19T02:00:33;14.30;99.90
45807;DHT22;31507;51.494;7.518;2023-09-19T02:02:59;14.20;99.90
45807;DHT22;31507;51.494;7.518;2023-09-19T02:05:25;14.20;99.90
45807;DHT22;31507;51.494;7.518;2023-09-19T02:07:54;14.20;99.90
45807;DHT22;31507;51.494;7.518;2023-09-19T02:10:21;14.20;99.90
45807;DHT22;31507;51.494;7.518;2023-09-19T02:12:46;14.20;99.90
45807;DHT22;31507;51.494;7.518;2023-09-19T02:15:12;14.20;99.90
45807;DHT22;31507;51.494;7.518;2023-09-19T02:17:37;14.20;99.90
45807;DHT22;31507;51.494;7.518;2023-09-19T02:20:03;14.20;99.90
45807;DHT22;31507;51.494;7.518;2023-09-19T02:22:36;14.20;99.90
45807;DHT22;31507;51.494;7.518;2023-09-19T02:25:02;14.20;99.90
45807;DHT22;31507;51.494;7.518;2023-09-19T02:27:30;14.20;99.90
45807;DHT22;31507;51.494;7.518;2023-09-19T02:29:56;14.10;99.90
45807;DHT22;31507;51.494;7.518;2023-09-19T02:32:21;14.10;99.90
45807;DHT22;31507;51.494;7.518;2023-09-19T02:34:48;14.20;99.90
45807;DHT22;31507;51.494;7.518;2023-09-19T02:37:14;14.20;99.90
45807;DHT22;31507;51.494;7.518;2023-09-19T02:39:41;14.10;99.90
45807;DHT22;31507;51.494;7.518;2023-09-19T02:42:07;14.10;99.90
45807;DHT22;31507;51.494;7.518;2023-09-19T02:44:33;14.10;99.90
45807;DHT22;31507;51.494;7.518;2023-09-19T02:47:01;14.10;99.90
45807;DHT22;31507;51.494;7.518;2023-09-19T02:49:26;14.10;99.90
45807;DHT22;31507;51.494;7.518;2023-09-19T02:51:52;14.10;99.90
45807;DHT22;31507;51.494;7.518;2023-09-19T02:54:17;14.10;99.90
45807;DHT22;31507;51.494;7.518;2023-09-19T02:56:43;14.10;99.90
45807;DHT22;31507;51.494;7.518;2023-09-19T02:59:08;14.00;99.90
45807;DHT22;31507;51.494;7.518;2023-09-19T03:01:35;14.10;99.90
45807;DHT22;31507;51.494;7.518;2023-09-19T03:04:02;14.10;99.90
45807;DHT22;31507;51.494;7.518;2023-09-19T03:06:28;14.10;99.90
45807;DHT22;31507;51.494;7.518;2023-09-19T03:08:56;14.10;99.90
45807;DHT22;31507;51.494;7.518;2023-09-19T03:11:22;14.10;99.90
45807;DHT22;31507;51.494;7.518;2023-09-19T03:13:54;14.00;99.90
45807;DHT22;31507;51.494;7.518;2023-09-19T03:16:20;14.10;99.90
45807;DHT22;31507;51.494;7.518;2023-09-19T03:18:47;14.10;99.90
45807;DHT22;31507;51.494;7.518;2023-09-19T03:21:16;14.00;99.90
45807;DHT22;31507;51.494;7.518;2023-09-19T03:23:43;14.10;99.90
45807;DHT22;31507;51.494;7.518;2023-09-19T03:26:13;14.00;99.90
45807;DHT22;31507;51.494;7.518;2023-09-19T03:28:42;14.00;99.90
45807;DHT22;31507;51.494;7.518;2023-09-19T03:31:08;14.00;99.90
45807;DHT22;31507;51.494;7.518;2023-09-19T03:33:34;14.00;99.90
45807;DHT22;31507;51.494;7.518;2023-09-19T03:36:00;14.00;99.90
45807;DHT22;31507;51.494;7.518;2023-09-19T03:38:26;13.90;99.90
45807;DHT22;31507;51.494;7.518;2023-09-19T03:40:53;13.90;99.90
45807;DHT22;31507;51.494;7.518;2023-09-19T03:43:18;13.90;99.90
45807;DHT22;31507;51.494;7.518;2023-09-19T03:45:44;13.80;99.90
45807;DHT22;31507;51.494;7.518;2023-09-19T03:48:12;13.90;99.90
45807;DHT22;31507;51.494;7.518;2023-09-19T03:50:37;13.90;99.90
45807;DHT22;31507;51.494;7.518;2023-09-19T03:53:03;13.90;99.90
45807;DHT22;31507;51.494;7.518;2023-09-19T03:55:28;13.90;99.90
45807;DHT22;31507;51.494;7.518;2023-09-19T03:57:55;13.80;99.90
45807;DHT22;31507;51.494;7.518;2023-09-19T04:00:21;13.80;99.90
45807;DHT22;31507;51.494;7.518;2023-09-19T04:02:49;13.80;99.90
45807;DHT22;31507;51.494;7.518;2023-09-19T04:05:16;13.70;99.90
45807;DHT22;31507;51.494;7.518;2023-09-19T04:07:42;13.70;99.90
45807;DHT22;31507;51.494;7.518;2023-09-19T04:10:09;13.70;99.90
45807;DHT22;31507;51.494;7.518;2023-09-19T04:12:37;13.60;99.90
45807;DHT22;31507;51.494;7.518;2023-09-19T04:15:03;13.70;99.90
45807;DHT22;31507;51.494;7.518;2023-09-19T04:17:33;13.70;99.90
45807;DHT22;31507;51.494;7.518;2023-09-19T04:19:59;13.60;99.90
45807;DHT22;31507;51.494;7.518;2023-09-19T04:22:24;13.60;99.90
45807;DHT22;31507;51.494;7.518;2023-09-19T04:24:50;13.60;99.90
45807;DHT22;31507;51.494;7.518;2023-09-19T04:27:15;13.50;99.90
45807;DHT22;31507;51.494;7.518;2023-09-19T04:29:41;13.50;99.90
45807;DHT22;31507;51.494;7.518;2023-09-19T04:32:07;13.60;99.90
45807;DHT22;31507;51.494;7.518;2023-09-19T04:34:33;13.50;99.90
45807;DHT22;31507;51.494;7.518;2023-09-19T04:36:59;13.50;99.90
45807;DHT22;31507;51.494;7.518;2023-09-19T04:39:26;13.50;99.90
45807;DHT22;31507;51.494;7.518;2023-09-19T04:41:52;13.50;99.90
45807;DHT22;31507;51.494;7.518;2023-09-19T04:44:18;13.50;99.90
45807;DHT22;31507;51.494;7.518;2023-09-19T04:46:44;13.50;99.90
45807;DHT22;31507;51.494;7.518;2023-09-19T04:49:09;13.50;99.90
45807;DHT22;31507;51.494;7.518;2023-09-19T04:51:35;13.50;99.90
45807;DHT22;31507;51.494;7.518;2023-09-19T04:54:01;13.50;99.90
45807;DHT22;31507;51.494;7.518;2023-09-19T04:56:28;13.50;99.90
45807;DHT22;31507;51.494;7.518;2023-09-19T04:58:54;13.50;99.90
45807;DHT22;31507;51.494;7.518;2023-09-19T05:01:19;13.40;99.90
45807;DHT22;31507;51.494;7.518;2023-09-19T05:03:47;13.40;99.90
45807;DHT22;31507;51.494;7.518;2023-09-19T05:06:17;13.40;99.90
45807;DHT22;31507;51.494;7.518;2023-09-19T05:08:43;13.50;99.90
45807;DHT22;31507;51.494;7.518;2023-09-19T05:11:08;13.50;99.90
45807;DHT22;31507;51.494;7.518;2023-09-19T05:13:34;13.50;99.90
45807;DHT22;31507;51.494;7.518;2023-09-19T05:16:00;13.50;99.90
45807;DHT22;31507;51.494;7.518;2023-09-19T05:18:27;13.50;99.90
45807;DHT22;31507;51.494;7.518;2023-09-19T05:20:53;13.50;99.90
45807;DHT22;31507;51.494;7.518;2023-09-19T05:23:20;13.50;99.90
45807;DHT22;31507;51.494;7.518;2023-09-19T05:25:46;13.50;99.90
45807;DHT22;31507;51.494;7.518;2023-09-19T05:28:11;13.50;99.90
45807;DHT22;31507;51.494;7.518;2023-09-19T05:30:40;13.50;99.90
45807;DHT22;31507;51.494;7.518;2023-09-19T05:33:06;13.50;99.90
45807;DHT22;31507;51.494;7.518;2023-09-19T05:35:33;13.50;99.90
45807;DHT22;31507;51.494;7.518;2023-09-19T05:37:58;13.50;99.90
45807;DHT22;31507;51.494;7.518;2023-09-19T05:40:25;13.50;99.90
45807;DHT22;31507;51.494;7.518;2023-09-19T05:42:50;13.60;99.90
45807;DHT22;31507;51.494;7.518;2023-09-19T05:45:16;13.60;99.90
45807;DHT22;31507;51.494;7.518;2023-09-19T05:47:50;13.60;99.90
45807;DHT22;31507;51.494;7.518;2023-09-19T05:50:16;13.60;99.90
45807;DHT22;31507;51.494;7.518;2023-09-19T05:52:42;13.60;99.90
45807;DHT22;31507;51.494;7.518;2023-09-19T05:55:09;13.70;99.90
45807;DHT22;31507;51.494;7.518;2023-09-19T05:57:36;13.70;99.90
45807;DHT22;31507;51.494;7.518;2023-09-19T06:00:04;13.70;99.90
45807;DHT22;31507;51.494;7.518;2023-09-19T06:02:35;13.70;99.90
45807;DHT22;31507;51.494;7.518;2023-09-19T06:05:01;13.80;99.90
45807;DHT22;31507;51.494;7.518;2023-09-19T06:07:28;13.80;99.90
45807;DHT22;31507;51.494;7.518;2023-09-19T06:10:02;13.80;99.90
45807;DHT22;31507;51.494;7.518;2023-09-19T06:12:31;13.90;99.90
45807;DHT22;31507;51.494;7.518;2023-09-19T06:14:59;13.90;99.90
45807;DHT22;31507;51.494;7.518;2023-09-19T06:17:24;13.90;99.90
45807;DHT22;31507;51.494;7.518;2023-09-19T06:19:52;14.00;99.90
45807;DHT22;31507;51.494;7.518;2023-09-19T06:22:17;14.10;99.90
45807;DHT22;31507;51.494;7.518;2023-09-19T06:24:46;14.10;99.90
45807;DHT22;31507;51.494;7.518;2023-09-19T06:27:12;14.10;99.90
45807;DHT22;31507;51.494;7.518;2023-09-19T06:29:38;14.20;99.90
45807;DHT22;31507;51.494;7.518;2023-09-19T06:32:10;14.20;99.90
45807;DHT22;31507;51.494;7.518;2023-09-19T06:34:36;14.20;99.90
45807;DHT22;31507;51.494;7.518;2023-09-19T06:37:02;14.30;99.90
45807;DHT22;31507;51.494;7.518;2023-09-19T06:39:28;14.40;99.90
45807;DHT22;31507;51.494;7.518;2023-09-19T06:41:54;14.40;99.90
45807;DHT22;31507;51.494;7.518;2023-09-19T06:44:19;14.40;99.90
45807;DHT22;31507;51.494;7.518;2023-09-19T06:46:47;14.50;99.90
45807;DHT22;31507;51.494;7.518;2023-09-19T06:49:15;14.50;99.90
45807;DHT22;31507;51.494;7.518;2023-09-19T06:51:40;14.60;99.90
45807;DHT22;31507;51.494;7.518;2023-09-19T06:54:07;14.60;99.90
45807;DHT22;31507;51.494;7.518;2023-09-19T06:56:32;14.60;99.90
45807;DHT22;31507;51.494;7.518;2023-09-19T06:58:58;14.60;99.90
45807;DHT22;31507;51.494;7.518;2023-09-19T07:01:23;14.70;99.90
45807;DHT22;31507;51.494;7.518;2023-09-19T07:03:50;14.70;99.90
45807;DHT22;31507;51.494;7.518;2023-09-19T07:06:16;14.70;99.90
45807;DHT22;31507;51.494;7.518;2023-09-19T07:08:41;14.80;99.90
45807;DHT22;31507;51.494;7.518;2023-09-19T07:11:07;14.80;99.90
45807;DHT22;31507;51.494;7.518;2023-09-19T07:13:32;14.80;99.90
45807;DHT22;31507;51.494;7.518;2023-09-19T07:15:58;14.90;99.90
45807;DHT22;31507;51.494;7.518;2023-09-19T07:18:24;14.90;99.90
45807;DHT22;31507;51.494;7.518;2023-09-19T07:20:50;15.00;99.90
45807;DHT22;31507;51.494;7.518;2023-09-19T07:23:16;15.00;99.90
45807;DHT22;31507;51.494;7.518;2023-09-19T07:25:44;15.00;99.90
45807;DHT22;31507;51.494;7.518;2023-09-19T07:28:09;15.10;99.90
45807;DHT22;31507;51.494;7.518;2023-09-19T07:30:38;15.10;99.90
45807;DHT22;31507;51.494;7.518;2023-09-19T07:33:04;15.20;99.90
45807;DHT22;31507;51.494;7.518;2023-09-19T07:35:30;15.20;99.90
45807;DHT22;31507;51.494;7.518;2023-09-19T07:37:56;15.20;99.90
45807;DHT22;31507;51.494;7.518;2023-09-19T07:40:23;15.30;99.90
45807;DHT22;31507;51.494;7.518;2023-09-19T07:42:50;15.30;99.90
45807;DHT22;31507;51.494;7.518;2023-09-19T07:45:16;15.40;99.90
45807;DHT22;31507;51.494;7.518;2023-09-19T07:47:45;15.40;99.90
45807;DHT22;31507;51.494;7.518;2023-09-19T07:50:12;15.50;99.90
45807;DHT22;31507;51.494;7.518;2023-09-19T07:52:38;15.60;99.90
45807;DHT22;31507;51.494;7.518;2023-09-19T07:55:05;15.60;99.90
45807;DHT22;31507;51.494;7.518;2023-09-19T07:57:34;15.70;99.90
45807;DHT22;31507;51.494;7.518;2023-09-19T08:00:00;15.70;99.90
45807;DHT22;31507;51.494;7.518;2023-09-19T08:02:26;15.70;99.90
45807;DHT22;31507;51.494;7.518;2023-09-19T08:04:53;15.80;99.90
45807;DHT22;31507;51.494;7.518;2023-09-19T08:07:19;15.90;99.90
45807;DHT22;31507;51.494;7.518;2023-09-19T08:09:45;15.90;99.90
45807;DHT22;31507;51.494;7.518;2023-09-19T08:12:12;16.00;99.90
45807;DHT22;31507;51.494;7.518;2023-09-19T08:14:37;16.10;99.90
45807;DHT22;31507;51.494;7.518;2023-09-19T08:17:03;16.20;99.90
45807;DHT22;31507;51.494;7.518;2023-09-19T08:19:31;16.20;99.90
45807;DHT22;31507;51.494;7.518;2023-09-19T08:21:57;16.20;99.90
45807;DHT22;31507;51.494;7.518;2023-09-19T08:24:27;16.30;99.90
45807;DHT22;31507;51.494;7.518;2023-09-19T08:26:56;16.30;99.90
45807;DHT22;31507;51.494;7.518;2023-09-19T08:29:22;16.40;99.90
45807;DHT22;31507;51.494;7.518;2023-09-19T08:31:55;16.40;99.90
45807;DHT22;31507;51.494;7.518;2023-09-19T08:34:22;16.50;99.90
45807;DHT22;31507;51.494;7.518;2023-09-19T08:36:50;16.50;99.90
45807;DHT22;31507;51.494;7.518;2023-09-19T08:39:15;16.40;99.90
45807;DHT22;31507;51.494;7.518;2023-09-19T08:41:42;16.40;99.90
45807;DHT22;31507;51.494;7.518;2023-09-19T08:44:07;16.50;99.90
45807;DHT22;31507;51.494;7.518;2023-09-19T08:46:35;16.60;99.90
45807;DHT22;31507;51.494;7.518;2023-09-19T08:49:04;16.60;99.90
45807;DHT22;31507;51.494;7.518;2023-09-19T08:51:34;16.60;99.90
45807;DHT22;31507;51.494;7.518;2023-09-19T08:54:08;16.70;99.90
45807;DHT22;31507;51.494;7.518;2023-09-19T08:56:35;16.80;99.90
45807;DHT22;31507;51.494;7.518;2023-09-19T08:59:05;16.90;99.90
45807;DHT22;31507;51.494;7.518;2023-09-19T09:01:32;17.00;99.90
45807;DHT22;31507;51.494;7.518;2023-09-19T09:03:58;17.10;99.90
45807;DHT22;31507;51.494;7.518;2023-09-19T09:06:24;17.20;99.90
45807;DHT22;31507;51.494;7.518;2023-09-19T09:08:50;17.30;99.90
45807;DHT22;31507;51.494;7.518;2023-09-19T09:11:17;17.50;99.90
45807;DHT22;31507;51.494;7.518;2023-09-19T09:13:43;17.70;99.90
45807;DHT22;31507;51.494;7.518;2023-09-19T09:16:10;17.70;99.90
45807;DHT22;31507;51.494;7.518;2023-09-19T09:18:35;17.70;99.90
45807;DHT22;31507;51.494;7.518;2023-09-19T09:21:01;17.60;99.90
45807;DHT22;31507;51.494;7.518;2023-09-19T09:23:27;17.60;99.90
45807;DHT22;31507;51.494;7.518;2023-09-19T09:25:55;17.70;99.90
45807;DHT22;31507;51.494;7.518;2023-09-19T09:28:28;17.90;99.90
45807;DHT22;31507;51.494;7.518;2023-09-19T09:30:54;18.00;99.90
45807;DHT22;31507;51.494;7.518;2023-09-19T09:33:22;18.10;99.90
45807;DHT22;31507;51.494;7.518;2023-09-19T09:35:48;18.20;99.90
45807;DHT22;31507;51.494;7.518;2023-09-19T09:38:20;18.30;99.90
45807;DHT22;31507;51.494;7.518;2023-09-19T09:40:50;18.40;99.90
45807;DHT22;31507;51.494;7.518;2023-09-19T09:43:26;18.30;99.90
45807;DHT22;31507;51.494;7.518;2023-09-19T09:48:46;18.00;99.90
45807;DHT22;31507;51.494;7.518;2023-09-19T09:51:30;18.00;99.90
45807;DHT22;31507;51.494;7.518;2023-09-19T09:54:09;18.00;99.90
45807;DHT22;31507;51.494;7.518;2023-09-19T09:56:35;18.10;99.90
45807;DHT22;31507;51.494;7.518;2023-09-19T09:59:16;18.10;99.90
45807;DHT22;31507;51.494;7.518;2023-09-19T10:01:46;18.10;99.90
45807;DHT22;31507;51.494;7.518;2023-09-19T10:04:15;18.50;99.90
45807;DHT22;31507;51.494;7.518;2023-09-19T10:06:53;19.00;99.90
45807;DHT22;31507;51.494;7.518;2023-09-19T10:09:19;19.10;99.90
45807;DHT22;31507;51.494;7.518;2023-09-19T10:11:46;18.80;99.90
45807;DHT22;31507;51.494;7.518;2023-09-19T10:14:15;18.50;99.90
45807;DHT22;31507;51.494;7.518;2023-09-19T10:16:45;18.30;99.90
45807;DHT22;31507;51.494;7.518;2023-09-19T10:19:11;18.60;99.90
45807;DHT22;31507;51.494;7.518;2023-09-19T10:21:41;18.90;99.90
45807;DHT22;31507;51.494;7.518;2023-09-19T10:24:08;19.30;99.90
45807;DHT22;31507;51.494;7.518;2023-09-19T10:26:34;19.30;99.90
45807;DHT22;31507;51.494;7.518;2023-09-19T10:29:01;19.50;99.90
45807;DHT22;31507;51.494;7.518;2023-09-19T10:31:29;19.50;99.90
45807;DHT22;31507;51.494;7.518;2023-09-19T10:33:55;19.30;99.90
45807;DHT22;31507;51.494;7.518;2023-09-19T10:36:21;18.90;99.90
45807;DHT22;31507;51.494;7.518;2023-09-19T10:38:50;18.90;99.90
45807;DHT22;31507;51.494;7.518;2023-09-19T10:41:20;18.80;99.90
45807;DHT22;31507;51.494;7.518;2023-09-19T10:43:47;19.00;99.90
45807;DHT22;31507;51.494;7.518;2023-09-19T10:46:13;19.20;99.90
45807;DHT22;31507;51.494;7.518;2023-09-19T10:48:39;19.30;99.90
45807;DHT22;31507;51.494;7.518;2023-09-19T10:53:59;20.00;99.90
45807;DHT22;31507;51.494;7.518;2023-09-19T10:56:30;20.30;99.90
45807;DHT22;31507;51.494;7.518;2023-09-19T10:59:10;20.40;99.90
45807;DHT22;31507;51.494;7.518;2023-09-19T11:01:44;20.50;99.90
45807;DHT22;31507;51.494;7.518;2023-09-19T11:04:20;19.90;99.90
45807;DHT22;31507;51.494;7.518;2023-09-19T11:07:00;19.90;99.90
45807;DHT22;31507;51.494;7.518;2023-09-19T11:18:01;19.80;99.90
45807;DHT22;31507;51.494;7.518;2023-09-19T11:20:29;20.00;99.90
45807;DHT22;31507;51.494;7.518;2023-09-19T11:25:43;20.10;99.90
45807;DHT22;31507;51.494;7.518;2023-09-19T11:30:39;20.40;99.90
45807;DHT22;31507;51.494;7.518;2023-09-19T11:33:17;20.60;99.90
45807;DHT22;31507;51.494;7.518;2023-09-19T11:49:17;20.40;99.90
45807;DHT22;31507;51.494;7.518;2023-09-19T11:51:46;20.40;99.90
45807;DHT22;31507;51.494;7.518;2023-09-19T11:54:14;20.60;99.90
45807;DHT22;31507;51.494;7.518;2023-09-19T11:56:53;20.60;99.90
45807;DHT22;31507;51.494;7.518;2023-09-19T11:59:21;20.60;99.50
45807;DHT22;31507;51.494;7.518;2023-09-19T12:02:06;20.60;99.90
45807;DHT22;31507;51.494;7.518;2023-09-19T12:04:34;20.60;99.90
45807;DHT22;31507;51.494;7.518;2023-09-19T12:07:12;20.30;99.90
45807;DHT22;31507;51.494;7.518;2023-09-19T12:12:33;19.60;99.90
45807;DHT22;31507;51.494;7.518;2023-09-19T12:14:59;19.80;99.90
45807;DHT22;31507;51.494;7.518;2023-09-19T12:17:37;20.10;99.90
45807;DHT22;31507;51.494;7.518;2023-09-19T12:20:04;20.40;99.70
45807;DHT22;31507;51.494;7.518;2023-09-19T12:22:42;20.60;99.60
45807;DHT22;31507;51.494;7.518;2023-09-19T12:25:09;20.50;99.60
45807;DHT22;31507;51.494;7.518;2023-09-19T12:27:43;20.60;99.90
45807;DHT22;31507;51.494;7.518;2023-09-19T12:30:09;20.80;99.90
45807;DHT22;31507;51.494;7.518;2023-09-19T12:32:35;20.80;99.80
45807;DHT22;31507;51.494;7.518;2023-09-19T12:35:01;20.80;99.90
45807;DHT22;31507;51.494;7.518;2023-09-19T12:37:32;20.80;98.70
45807;DHT22;31507;51.494;7.518;2023-09-19T12:40:05;20.60;99.20
45807;DHT22;31507;51.494;7.518;2023-09-19T12:42:42;20.10;98.50
45807;DHT22;31507;51.494;7.518;2023-09-19T12:45:08;19.90;99.60
45807;DHT22;31507;51.494;7.518;2023-09-19T12:47:38;20.10;99.90
45807;DHT22;31507;51.494;7.518;2023-09-19T12:50:12;20.50;98.90
45807;DHT22;31507;51.494;7.518;2023-09-19T12:52:45;20.60;98.80
45807;DHT22;31507;51.494;7.518;2023-09-19T13:00:31;21.00;98.30
45807;DHT22;31507;51.494;7.518;2023-09-19T13:03:18;21.20;98.90
45807;DHT22;31507;51.494;7.518;2023-09-19T13:05:56;21.20;96.20
45807;DHT22;31507;51.494;7.518;2023-09-19T13:08:24;21.10;97.40
45807;DHT22;31507;51.494;7.518;2023-09-19T13:13:26;21.30;96.40
45807;DHT22;31507;51.494;7.518;2023-09-19T13:15:53;21.50;97.30
45807;DHT22;31507;51.494;7.518;2023-09-19T13:18:19;21.50;96.50
45807;DHT22;31507;51.494;7.518;2023-09-19T13:21:05;21.40;96.50
45807;DHT22;31507;51.494;7.518;2023-09-19T13:23:30;21.30;96.60
45807;DHT22;31507;51.494;7.518;2023-09-19T13:25:56;21.30;95.80
45807;DHT22;31507;51.494;7.518;2023-09-19T13:28:22;21.20;94.80
45807;DHT22;31507;51.494;7.518;2023-09-19T13:30:47;21.10;94.90
45807;DHT22;31507;51.494;7.518;2023-09-19T13:33:13;21.00;94.90
45807;DHT22;31507;51.494;7.518;2023-09-19T13:35:46;20.90;95.20
45807;DHT22;31507;51.494;7.518;2023-09-19T13:38:13;21.00;95.90
45807;DHT22;31507;51.494;7.518;2023-09-19T13:40:39;20.90;94.90
45807;DHT22;31507;51.494;7.518;2023-09-19T13:43:07;21.00;95.80
45807;DHT22;31507;51.494;7.518;2023-09-19T13:45:33;21.10;95.40
45807;DHT22;31507;51.494;7.518;2023-09-19T13:47:59;21.10;95.20
45807;DHT22;31507;51.494;7.518;2023-09-19T13:50:25;21.20;94.90
45807;DHT22;31507;51.494;7.518;2023-09-19T13:52:51;21.20;94.50
45807;DHT22;31507;51.494;7.518;2023-09-19T13:55:18;21.20;94.30
45807;DHT22;31507;51.494;7.518;2023-09-19T13:57:47;21.30;94.50
45807;DHT22;31507;51.494;7.518;2023-09-19T14:00:20;21.40;94.30
45807;DHT22;31507;51.494;7.518;2023-09-19T14:02:47;21.40;94.70
45807;DHT22;31507;51.494;7.518;2023-09-19T14:05:14;21.40;94.60
45807;DHT22;31507;51.494;7.518;2023-09-19T14:07:44;21.40;94.80
45807;DHT22;31507;51.494;7.518;2023-09-19T14:10:11;21.40;94.20
45807;DHT22;31507;51.494;7.518;2023-09-19T14:12:36;21.30;94.90
45807;DHT22;31507;51.494;7.518;2023-09-19T14:15:03;21.10;94.90
45807;DHT22;31507;51.494;7.518;2023-09-19T14:17:29;20.80;95.00
45807;DHT22;31507;51.494;7.518;2023-09-19T14:19:54;20.50;95.40
45807;DHT22;31507;51.494;7.518;2023-09-19T14:22:20;20.50;95.70
45807;DHT22;31507;51.494;7.518;2023-09-19T14:24:46;20.40;96.60
45807;DHT22;31507;51.494;7.518;2023-09-19T14:27:13;20.20;96.50
45807;DHT22;31507;51.494;7.518;2023-09-19T14:29:38;20.20;96.50
45807;DHT22;31507;51.494;7.518;2023-09-19T14:32:04;20.40;97.50
45807;DHT22;31507;51.494;7.518;2023-09-19T14:34:30;20.40;96.70
45807;DHT22;31507;51.494;7.518;2023-09-19T14:36:55;20.50;97.30
45807;DHT22;31507;51.494;7.518;2023-09-19T14:39:21;20.30;97.10
45807;DHT22;31507;51.494;7.518;2023-09-19T14:41:48;20.20;97.80
45807;DHT22;31507;51.494;7.518;2023-09-19T14:44:13;20.20;97.50
45807;DHT22;31507;51.494;7.518;2023-09-19T14:46:41;20.40;97.60
45807;DHT22;31507;51.494;7.518;2023-09-19T14:49:07;20.30;96.80
45807;DHT22;31507;51.494;7.518;2023-09-19T14:51:35;20.20;97.30
45807;DHT22;31507;51.494;7.518;2023-09-19T14:54:01;20.10;97.20
45807;DHT22;31507;51.494;7.518;2023-09-19T14:56:27;20.00;97.50
45807;DHT22;31507;51.494;7.518;2023-09-19T14:58:55;19.90;97.90
45807;DHT22;31507;51.494;7.518;2023-09-19T15:01:20;19.80;98.10
45807;DHT22;31507;51.494;7.518;2023-09-19T15:03:47;19.70;98.40
45807;DHT22;31507;51.494;7.518;2023-09-19T15:06:15;19.70;98.10
45807;DHT22;31507;51.494;7.518;2023-09-19T15:08:42;19.90;98.10
45807;DHT22;31507;51.494;7.518;2023-09-19T15:11:13;19.80;97.90
45807;DHT22;31507;51.494;7.518;2023-09-19T15:13:38;19.70;98.70
45807;DHT22;31507;51.494;7.518;2023-09-19T15:16:07;19.60;98.80
45807;DHT22;31507;51.494;7.518;2023-09-19T15:18:37;19.60;98.80
45807;DHT22;31507;51.494;7.518;2023-09-19T15:21:03;19.50;99.00
45807;DHT22;31507;51.494;7.518;2023-09-19T15:23:30;19.50;99.50
45807;DHT22;31507;51.494;7.518;2023-09-19T15:25:56;19.40;99.10
45807;DHT22;31507;51.494;7.518;2023-09-19T15:28:22;19.30;99.70
45807;DHT22;31507;51.494;7.518;2023-09-19T15:30:56;19.20;99.80
45807;DHT22;31507;51.494;7.518;2023-09-19T15:33:22;19.10;99.50
45807;DHT22;31507;51.494;7.518;2023-09-19T15:35:47;19.10;99.90
45807;DHT22;31507;51.494;7.518;2023-09-19T15:38:13;19.00;99.90
45807;DHT22;31507;51.494;7.518;2023-09-19T15:40:45;19.00;99.90
45807;DHT22;31507;51.494;7.518;2023-09-19T15:43:11;18.90;99.90
45807;DHT22;31507;51.494;7.518;2023-09-19T15:45:37;18.80;99.90
45807;DHT22;31507;51.494;7.518;2023-09-19T15:48:03;18.80;99.90
45807;DHT22;31507;51.494;7.518;2023-09-19T15:50:30;18.80;99.90
45807;DHT22;31507;51.494;7.518;2023-09-19T15:52:55;18.70;99.90
45807;DHT22;31507;51.494;7.518;2023-09-19T15:55:21;18.70;99.90
45807;DHT22;31507;51.494;7.518;2023-09-19T15:57:46;18.60;99.90
45807;DHT22;31507;51.494;7.518;2023-09-19T16:00:12;18.60;99.90
45807;DHT22;31507;51.494;7.518;2023-09-19T16:02:42;18.60;99.90
45807;DHT22;31507;51.494;7.518;2023-09-19T16:05:08;18.70;99.90
45807;DHT22;31507;51.494;7.518;2023-09-19T16:07:33;18.70;99.90
45807;DHT22;31507;51.494;7.518;2023-09-19T16:09:59;18.80;99.90
45807;DHT22;31507;51.494;7.518;2023-09-19T16:12:25;18.80;99.90
45807;DHT22;31507;51.494;7.518;2023-09-19T16:14:51;18.80;99.90
45807;DHT22;31507;51.494;7.518;2023-09-19T16:17:16;18.80;99.90
45807;DHT22;31507;51.494;7.518;2023-09-19T16:19:42;18.80;99.90
45807;DHT22;31507;51.494;7.518;2023-09-19T16:22:09;18.80;99.90
45807;DHT22;31507;51.494;7.518;2023-09-19T16:24:34;18.80;99.90
45807;DHT22;31507;51.494;7.518;2023-09-19T16:27:00;18.70;99.90
45807;DHT22;31507;51.494;7.518;2023-09-19T16:29:25;18.70;99.90